Albany, New York
Traffic Map
Current Weather Conditions
Albany, New York
Clear
Clear

Feels Like: -3°
Wind Chill: -3° Ceiling: Unl
Heat Index: Visibility: 10mi
Dew Point: -15° Wind: 15mph
Humidity: 27% Direction: 290° (WNW)
Pressure: 30.18in Gusts: 23mph
Raw Report DataKALB 020051Z 29013G20KT 10SM CLR 02/M15 A3018 RMK AO2 SLP222 T00221150
Traffic Incident Summary
Active as of:
Severity:
Category:
InformationThere was an issue retrieving the traffic information for this location. Please try a different location or try again shortly.
Advertisements
Track Severe Weather on mobile